Tiempo atmosférico en la estación meteorológica de Fraga, Huesca (170 m.)



Fecha
DESCASC
Temp. máxima en grados centígrados (hora)
DESCASC
Temp. mínima en grados centígrados (hora)
DESCASC
Temp. media en grados centígrados
DESCASC
Racha de viento máxima en m/sg (hora)
DESCASC
Velocidad máxima media en intervalos de 10 minutos(hora)
DESCASC
Precipitaciones diarias en mm
DESCASC
Precipitaciones de 00:00 a 06:00 en mm
DESCASC
Precipitaciones de 06:00 a 12:00 en mm
DESCASC
Precipitaciones de 12:00 a 18:00 en mm
DESCASC
Precipitaciones de 18:00 a 24:00 en mm
DESCASC
09-01-2021 0.8 (14:50) -0.5 (-00:0) 0.2 6.67 (23:59) 4.72 (23:59) 35.8 5 9.4 5.8 15.6
10-01-2021 1.9 (15:30) 0.5 (01:20) 1.2 6.67 (00:10) 4.44 (00:10) 9.2 2.6 4.6 1.8 0.2
22-01-2021 13.7 (15:00) 5 (00:00) 9.3 23.61 (08:00) 13.33 (15:10) 4.4 0 4.4 0 0
25-01-2021 10.9 (14:50) 8 (00:00) 9.4 11.39 (16:00) 6.94 (16:00) 3.8 0 3.6 0.2 0
23-01-2021 13.8 (14:20) 5.2 (00:00) 9.5 15 (14:30) 10 (14:30) 1.8 0 0 0.6 1.2
28-12-2020 12.2 (15:00) -0.3 (00:00) 5.9 16.67 (06:40) 11.39 (09:40) 1 1 0 0 0
24-01-2021 13.9 (15:10) 5.5 (00:00) 9.7 18.33 (09:40) 13.33 (06:30) 0.6 0.6 0 0 0
20-01-2021 5.5 (17:30) -1.5 (-00:0) 2 4.17 (13:20) 2.22 (13:20) 0.6 0 0 0.4 0.2
31-12-2020 11.2 (13:40) 0.3 (00:00) 5.7 9.17 (18:40) 6.11 (00:10) 0.2 0 0 0 0.2
21-01-2021 7.3 (18:40) 2.1 (00:00) 4.7 3.89 (19:00) 2.5 (19:00) 0.2 0 0 0.2 0
08-01-2021 2.3 (15:10) -3 (-00:0) -0.4 3.61 (14:30) 1.67 (14:20) 0.2 0 0 0 0.2
19-01-2021 7.5 (16:30) -1.7 (-00:0) 2.9 3.06 (23:10) 1.67 (23:10) 0 0 0 0 0
15-01-2021 12.3 (15:10) -2.9 (-00:0) 4.7 16.11 (16:00) 10.28 (15:40) 0 0 0 0 0
16-01-2021 12 (16:50) 3.4 (00:00) 7.7 5.83 (01:10) 3.61 (13:20) 0 0 0 0 0
17-01-2021 16.4 (14:50) 1 (00:00) 8.7 13.06 (15:00) 8.33 (15:10) 0 0 0 0 0
18-01-2021 11.6 (16:20) 1.7 (00:00) 6.7 5.28 (00:10) 3.33 (02:50) 0 0 0 0 0
12-01-2021 6.2 (16:50) -5.7 (-00:0) 0.3 4.44 (18:00) 2.78 (16:10) 0 0 0 0 0
26-01-2021 12.5 (16:10) 3.8 (00:00) 8.1 10 (00:40) 7.5 (00:40) 0 0 0 0 0
14-01-2021 9.1 (15:40) -2.9 (02:50) 3.1 3.06 (18:50) 2.22 (18:50) 0 0 0 0 0
13-01-2021 8 (15:50) -4.2 (-00:0) 1.9 4.17 (17:50) 3.06 (18:00) 0 0 0 0 0
11-01-2021 3.1 (16:40) -2.3 (-00:0) 0.4 4.17 (02:00) 2.22 (02:00) 0 0 0 0 0
07-01-2021 1.6 (22:50) -3.9 (-00:0) -1.2 4.17 (22:00) 2.5 (17:50) 0 0 0 0 0
06-01-2021 1.5 (17:00) -5.2 (-00:0) -1.8 3.61 (19:00) 2.22 (19:00) 0 0 0 0 0
05-01-2021 7.3 (14:40) -1.7 (-00:0) 2.8 5.56 (20:00) 3.61 (19:50) 0 0 0 0 0
04-01-2021 9.2 (13:50) 0.3 (00:00) 4.7 8.33 (16:20) 6.11 (16:30) 0 0 0 0 0
03-01-2021 9.8 (15:40) 0.4 (00:00) 5.1 15 (16:20) 9.72 (15:30) 0 0 0 0 0
02-01-2021 10.6 (15:30) 0.5 (00:00) 5.6 10.83 (19:30) 7.22 (18:30) 0 0 0 0 0
01-01-2021 10.1 (15:40) 3.2 (00:00) 6.7 10 (21:20) 7.22 (21:20) 0 0 0 0 0
30-12-2020 11.3 (15:10) 3.6 (00:00) 7.5 16.11 (16:40) 10.28 (15:20) 0 0 0 0 0
29-12-2020 11.6 (13:40) 4.2 (00:00) 7.9 12.5 (14:00) 9.17 (14:00) 0 0 0 0 0

Gráficas

Temp. máximas Temp. mínimas Temp. medias Precipitaciones Rachas de viento máximas Velocidades máximas media en intervalos de 10 minutos

Datos horarios

Fecha y hora oficial Temperatura (ºC) Velocidad del viento (km/h) Dirección del viento Racha (km/h) Dirección de racha Precipitación (mm) Presión (hPa) Tendencia (hPa) Humedad (%)
2021-01-26 23:00:00 5.7 0 Calma 4 Sur 0 -- -- 83
2021-01-26 22:00:00 6.8 0 Calma 5 Nordeste 0 -- -- 76
2021-01-26 21:00:00 7.2 0 Calma 4 Norte 0 -- -- 75
2021-01-26 20:00:00 7.9 0 Calma 3 Norte 0 -- -- 72
2021-01-26 19:00:00 9 0 Calma 4 Nordeste 0 -- -- 68
2021-01-26 18:00:00 10.7 4 Nordeste 13 Norte 0 -- -- 61
2021-01-26 17:00:00 11.6 5 Norte 11 Nordeste 0 -- -- 58
2021-01-26 16:00:00 12.3 6 Nordeste 15 Oeste 0 -- -- 56
2021-01-26 15:00:00 11.2 4 Noroeste 16 Noroeste 0 -- -- 53
2021-01-26 14:00:00 10.4 9 Noroeste 18 Oeste 0 -- -- 54
2021-01-26 13:00:00 10.3 4 Oeste 10 Oeste 0 -- -- 56
2021-01-26 12:00:00 9.2 2 Sudoeste 12 Sudoeste 0 -- -- 63
2021-01-26 11:00:00 7.7 5 Sur 11 Sur 0 -- -- 75
2021-01-26 10:00:00 5.8 4 Sur 6 Sur 0 -- -- 82
2021-01-26 09:00:00 4.1 3 Sudoeste 14 Sudoeste 0 -- -- 86
2021-01-26 08:00:00 4 9 Sudoeste 14 Sudoeste 0 -- -- 86
2021-01-26 07:00:00 4 7 Sudoeste 11 Sudoeste 0 -- -- 83
2021-01-26 06:00:00 4.6 10 Sudoeste 16 Sudoeste 0 -- -- 84
2021-01-26 05:00:00 5.3 8 Sudoeste 22 Oeste 0 -- -- 80
2021-01-26 04:00:00 5.9 10 Oeste 25 Oeste 0 -- -- 78
2021-01-26 03:00:00 6.2 5 Oeste 24 Oeste 0 -- -- 76
2021-01-26 02:00:00 7.1 10 Sudoeste 28 Oeste 0 -- -- 71
2021-01-26 01:00:00 7.9 23 Oeste 36 Oeste 0 -- -- 67
2021-01-26 00:00:00 8.5 21 Oeste 35 Oeste 0 -- -- 68
2021-01-25 23:00:00 8.3 9 Sudoeste 26 Oeste 0 -- -- 73
2021-01-25 22:00:00 8.5 10 Oeste 18 Oeste 0 -- -- 79
2021-01-25 21:00:00 9 5 Oeste 20 Sudoeste 0 -- -- 82
2021-01-25 20:00:00 9.5 10 Sudoeste 30 Oeste 0 -- -- 83
2021-01-25 19:00:00 9.4 18 Oeste 31 Oeste 0 -- -- 87
2021-01-25 18:00:00 9.8 13 Oeste 38 Oeste 0 -- -- 86
2021-01-25 17:00:00 10.2 19 Oeste 39 Oeste 0 -- -- 86
2021-01-25 16:00:00 10.6 25 Oeste 41 Oeste 0 -- -- 87
2021-01-25 15:00:00 10.7 14 Sudoeste 24 Sudoeste 0 -- -- 88
2021-01-25 14:00:00 10.6 15 Oeste 24 Oeste 0 -- -- 87
2021-01-25 13:00:00 9.9 4 Sudoeste 7 Sudoeste 0.2 -- -- 93
2021-01-25 12:00:00 9.3 3 Sudoeste 7 Sudoeste 1 -- -- 93
2021-01-25 11:00:00 8.8 3 Sudoeste 7 Oeste 1.2 -- -- 93
2021-01-25 10:00:00 8.4 6 Noroeste 18 Noroeste 0.8 -- -- 92
2021-01-25 09:00:00 8.8 12 Noroeste 23 Oeste 0.2 -- -- 88
2021-01-25 08:00:00 9.2 14 Noroeste 21 Noroeste 0.4 -- -- 83
2021-01-25 07:00:00 9.1 8 Noroeste 13 Noroeste 0 -- -- 74
2021-01-25 06:00:00 9.4 4 Oeste 17 Oeste 0 -- -- 71
2021-01-25 05:00:00 9 8 Sudoeste 22 Oeste 0 -- -- 72
2021-01-25 04:00:00 9.1 7 Oeste 18 Noroeste 0 -- -- 71
2021-01-25 03:00:00 9.3 9 Noroeste 16 Noroeste 0 -- -- 70
2021-01-25 02:00:00 8.8 3 Noroeste 12 Noroeste 0 -- -- 70
2021-01-25 01:00:00 8.6 5 Norte 9 Noroeste 0 -- -- 72
2021-01-25 00:00:00 8.5 6 Norte 12 Nordeste 0 -- -- 73
2021-01-24 23:00:00 9.1 4 Nordeste 18 Oeste 0 -- -- 72
2021-01-24 22:00:00 10.1 5 Sudoeste 13 Sudoeste 0 -- -- 68
2021-01-24 21:00:00 10.1 3 Norte 11 Noroeste 0 -- -- 67
2021-01-24 20:00:00 10.6 4 Norte 13 Oeste 0 -- -- 65
2021-01-24 19:00:00 11 7 Oeste 12 Oeste 0 -- -- 66
2021-01-24 18:00:00 11.8 9 Noroeste 18 Noroeste 0 -- -- 64
2021-01-24 17:00:00 12.7 12 Oeste 26 Oeste 0 -- -- 59
2021-01-24 16:00:00 12.8 20 Oeste 42 Oeste 0 -- -- 58
2021-01-24 15:00:00 13.8 26 Oeste 43 Oeste 0 -- -- 53
2021-01-24 14:00:00 13 37 Oeste 54 Oeste 0 -- -- 54
2021-01-24 13:00:00 12.7 35 Oeste 59 Oeste 0 -- -- 54
2021-01-24 12:00:00 11.8 37 Oeste 60 Oeste 0 -- -- 55
2021-01-24 11:00:00 10.8 32 Oeste 57 Noroeste 0 -- -- 60
2021-01-24 10:00:00 10.2 30 Noroeste 66 Noroeste 0 -- -- 59
2021-01-24 09:00:00 9.2 32 Oeste 54 Oeste 0 -- -- 71
2021-01-24 08:00:00 9.5 30 Oeste 59 Oeste 0 -- -- 77
2021-01-24 07:00:00 10.2 32 Oeste 66 Oeste 0 -- -- 76
2021-01-24 06:00:00 10.4 37 Oeste 55 Oeste 0.2 -- -- 79
2021-01-24 05:00:00 5.7 2 Sur 12 Norte 0 -- -- 97
2021-01-24 04:00:00 5.5 5 Nordeste 10 Norte 0 -- -- 96
2021-01-24 03:00:00 6.1 5 Norte 10 Norte 0 -- -- 97
2021-01-24 02:00:00 6.4 5 Noroeste 12 Noroeste 0 -- -- 96
2021-01-24 01:00:00 7 3 Oeste 19 Noroeste 0.4 -- -- 95
2021-01-24 00:00:00 7.5 5 Noroeste 14 Oeste 0.2 -- -- 94
2021-01-23 23:00:00 7.7 3 Sudeste 9 Este 0 -- -- 93
2021-01-23 22:00:00 8 3 Nordeste 8 Nordeste 0.2 -- -- 92
2021-01-23 21:00:00 8.3 0 Calma 5 Este 0.6 -- -- 91
2021-01-23 20:00:00 8.8 0 Calma 5 Sur 0.2 -- -- 87
2021-01-23 19:00:00 9.3 3 Este 6 Este 0 -- -- 79
2021-01-23 18:00:00 9.7 0 Calma 8 Sudoeste 0.6 -- -- 81
2021-01-23 17:00:00 10.6 4 Oeste 33 Oeste 0 -- -- 74
2021-01-23 16:00:00 11.3 22 Oeste 44 Oeste 0 -- -- 69
2021-01-23 15:00:00 13.2 27 Oeste 54 Oeste 0 -- -- 54
2021-01-23 14:00:00 13.5 32 Oeste 49 Oeste 0 -- -- 52
2021-01-23 13:00:00 12.7 24 Oeste 36 Oeste 0 -- -- 56
2021-01-23 12:00:00 11.1 13 Oeste 22 Oeste 0 -- -- 58
2021-01-23 11:00:00 9.7 2 Sudoeste 8 Sur 0 -- -- 62
2021-01-23 10:00:00 7.8 0 Calma 15 Sudoeste 0 -- -- 68
2021-01-23 09:00:00 7.1 4 Oeste 25 Oeste 0 -- -- 69
2021-01-23 08:00:00 6 5 Noroeste 13 Noroeste 0 -- -- 73
2021-01-23 07:00:00 5.6 5 Oeste 15 Noroeste 0 -- -- 75
2021-01-23 06:00:00 5.2 3 Oeste 15 Noroeste 0 -- -- 76
2021-01-23 05:00:00 6.1 13 Noroeste 19 Noroeste 0 -- -- 72
2021-01-23 04:00:00 6.2 14 Noroeste 19 Noroeste 0 -- -- 71
2021-01-23 03:00:00 6.1 6 Oeste 21 Sudoeste 0 -- -- 72
2021-01-23 02:00:00 5.9 6 Sur 18 Sudoeste 0 -- -- 73
2021-01-23 01:00:00 7.4 10 Oeste 37 Oeste 0 -- -- 66
2021-01-23 00:00:00 7.7 24 Oeste 36 Oeste 0 -- -- 64
2021-01-22 23:00:00 7.2 11 Oeste 30 Oeste 0 -- -- 66
2021-01-22 22:00:00 8 17 Oeste 47 Oeste 0 -- -- 63
2021-01-22 21:00:00 8.3 33 Oeste 55 Oeste 0 -- -- 63
2021-01-22 20:00:00 8.8 35 Oeste 55 Oeste 0 -- -- 61
2021-01-22 19:00:00 9.5 33 Oeste 62 Oeste 0 -- -- 60
2021-01-22 18:00:00 10.2 36 Oeste 62 Noroeste 0 -- -- 58
2021-01-22 17:00:00 11.8 38 Oeste 69 Oeste 0 -- -- 56
2021-01-22 16:00:00 12.5 36 Oeste 75 Oeste 0 -- -- 57
2021-01-22 15:00:00 13.7 44 Oeste 68 Oeste 0 -- -- 54
2021-01-22 14:00:00 11.9 23 Oeste 40 Oeste 0 -- -- 65
2021-01-22 13:00:00 11.4 38 Oeste 71 Oeste 0 -- -- 68
2021-01-22 12:00:00 12.7 44 Oeste 67 Oeste 0 -- -- 58
2021-01-22 11:00:00 12.2 44 Oeste 64 Sudoeste 0 -- -- 60
2021-01-22 10:00:00 10.8 32 Oeste 57 Sudoeste 0 -- -- 66
2021-01-22 09:00:00 9.6 32 Oeste 71 Oeste 0.4 -- -- 71
2021-01-22 08:00:00 6.5 33 Oeste 85 Noroeste 4 -- -- 99
2021-01-22 07:00:00 7.3 8 Sudeste 13 Este 0 -- -- 100
2021-01-22 06:00:00 5.8 4 Sudoeste 9 Este 0 -- -- 100
2021-01-22 05:00:00 5.4 4 Sur 11 Sudoeste 0 -- -- 100
2021-01-22 04:00:00 5.3 3 Sur 5 Sudoeste 0 -- -- 100
2021-01-22 03:00:00 5.5 3 Sur 5 Sur 0 -- -- 100
2021-01-22 02:00:00 5.4 0 Calma 4 Sur 0 -- -- 99
2021-01-22 01:00:00 5.3 0 Calma 6 Sudoeste 0 -- -- 99
2021-01-22 00:00:00 5.4 0 Calma 8 Sur 0 -- -- 99
2021-01-21 23:00:00 6.3 3 Sur 5 Sur 0 -- -- 99
2021-01-21 22:00:00 6.2 0 Calma 12 Sur 0 -- -- 98
2021-01-21 21:00:00 6.6 0 Calma 14 Nordeste 0 -- -- 98
2021-01-21 20:00:00 6.8 5 Nordeste 12 Sur 0 -- -- 98
2021-01-21 19:00:00 7.3 9 Sur 14 Sudoeste 0 -- -- 99
2021-01-21 18:00:00 7.2 2 Sur 9 Este 0 -- -- 100
2021-01-21 17:00:00 7.2 0 Calma 9 Sur 0.2 -- -- 100
2021-01-21 16:00:00 7 2 Sudoeste 9 Oeste 0 -- -- 100
2021-01-21 15:00:00 6.6 4 Sudeste 6 Sudeste 0 -- -- 100
2021-01-21 14:00:00 6 5 Sur 11 Sur 0 -- -- 100
2021-01-21 13:00:00 5.4 3 Sudoeste 5 Noroeste 0 -- -- 100
2021-01-21 12:00:00 4.8 2 Sur 5 Sur 0 -- -- 100
2021-01-21 11:00:00 4 0 Calma 8 Sur 0 -- -- 100
2021-01-21 10:00:00 3.1 0 Calma 5 Sudeste 0 -- -- 100
2021-01-21 09:00:00 2.5 2 Sur 6 Sur 0 -- -- 99
2021-01-21 08:00:00 2.4 0 Calma 6 Sur 0 -- -- 99
2021-01-21 07:00:00 2.1 2 Sudeste 4 Sur 0 -- -- 99
2021-01-21 06:00:00 2.3 0 Calma 5 Sur 0 -- -- 98
2021-01-21 05:00:00 2.5 0 Calma 2 Nordeste 0 -- -- 98
2021-01-21 04:00:00 3.4 0 Calma 5 Oeste 0 -- -- 97
2021-01-21 03:00:00 4.5 0 Calma 7 Norte 0 -- -- 97
2021-01-21 02:00:00 4.6 2 Norte 5 Norte 0 -- -- 98
2021-01-21 01:00:00 4.8 0 Calma 4 Nordeste 0 -- -- 98
2021-01-21 00:00:00 4.9 2 Noroeste 8 Oeste 0 -- -- 97
2021-01-20 23:00:00 4.9 2 Noroeste 6 Noroeste 0 -- -- 97
2021-01-20 22:00:00 4.9 3 Noroeste 5 Noroeste 0.2 -- -- 96
2021-01-20 21:00:00 5 0 Calma 3 Noroeste 0 -- -- 96
2021-01-20 20:00:00 5 0 Calma 3 Noroeste 0 -- -- 95
2021-01-20 19:00:00 5.2 3 Noroeste 6 Noroeste 0 -- -- 95
2021-01-20 18:00:00 5.3 5 Norte 11 Noroeste 0 -- -- 94
2021-01-20 17:00:00 5.4 4 Noroeste 9 Noroeste 0 -- -- 94
2021-01-20 16:00:00 5.3 0 Calma 6 Oeste 0 -- -- 93
2021-01-20 15:00:00 4.8 0 Calma 12 Este 0.4 -- -- 93
2021-01-20 14:00:00 4.5 4 Sudeste 15 Sur 0 -- -- 90
2021-01-20 13:00:00 4.1 4 Sur 7 Oeste 0 -- -- 96
2021-01-20 12:00:00 2.5 3 Noroeste 10 Oeste 0 -- -- 99
2021-01-20 11:00:00 1.3 6 Noroeste 11 Noroeste 0 -- -- 99
2021-01-20 10:00:00 0 2 Sudoeste 4 Sudoeste 0 -- -- 100
2021-01-20 09:00:00 -1 0 Calma 4 Sudoeste 0 -- -- 99
2021-01-20 08:00:00 -1 2 Oeste 6 Noroeste 0 -- -- 99
2021-01-20 07:00:00 -1.3 2 Noroeste 4 Noroeste 0 -- -- 99
2021-01-20 06:00:00 -0.8 2 Sur 4 Noroeste 0 -- -- 99
2021-01-20 05:00:00 -1.1 0 Calma 9 Noroeste 0 -- -- 98
2021-01-20 04:00:00 -0.4 5 Noroeste 8 Noroeste 0 -- -- 98
2021-01-20 03:00:00 -0.4 3 Sudoeste 4 Oeste 0 -- -- 97
2021-01-20 02:00:00 1.1 0 Calma 6 Noroeste 0 -- -- 99
2021-01-20 01:00:00 0 3 Noroeste 6 Noroeste 0 -- -- 96
2021-01-20 00:00:00 1.4 0 Calma 11 Oeste 0 -- -- 95
2021-01-19 23:00:00 2.2 0 Calma 4 Noroeste 0 -- -- 95
2021-01-19 22:00:00 2.9 0 Calma 4 Noroeste 0 -- -- 95
2021-01-19 21:00:00 3.2 0 Calma 4 Oeste 0 -- -- 92
2021-01-19 20:00:00 4.1 2 Norte 4 Norte 0 -- -- 91
2021-01-19 19:00:00 4.6 0 Calma 4 Sur 0 -- -- 86
2021-01-19 18:00:00 6.1 3 Sur 7 Sur 0 -- -- 83
2021-01-19 17:00:00 7.2 5 Sur 8 Sur 0 -- -- 79
2021-01-19 16:00:00 6.9 5 Sudoeste 8 Sudoeste 0 -- -- 79
2021-01-19 15:00:00 4.8 2 Sur 6 Sur 0 -- -- 97
2021-01-19 14:00:00 2 2 Sudoeste 5 Sudoeste 0 -- -- 99
2021-01-19 13:00:00 1 2 Sudoeste 5 Oeste 0 -- -- 99
2021-01-19 12:00:00 0.2 0 Calma 4 Nordeste 0 -- -- 99
2021-01-19 11:00:00 -1.2 0 Calma 4 Oeste 0 -- -- 99
2021-01-19 10:00:00 -1.6 0 Calma 3 Noroeste 0 -- -- 98
2021-01-19 09:00:00 -1.6 0 Calma 3 Nordeste 0 -- -- 98
2021-01-19 08:00:00 -1.5 0 Calma 3 Nordeste 0 -- -- 98
2021-01-19 07:00:00 -1.4 0 Calma 3 Sur 0 -- -- 97
2021-01-19 06:00:00 -1 0 Calma 2 Sudoeste 0 -- -- 97
2021-01-19 05:00:00 -0.5 0 Calma 4 Oeste 0 -- -- 97
2021-01-19 04:00:00 -0.2 3 Sudoeste 4 Oeste 0 -- -- 97
2021-01-19 03:00:00 0.2 0 Calma 3 Noroeste 0 -- -- 96
2021-01-19 02:00:00 0.7 0 Calma 2 Noroeste 0 -- -- 95
2021-01-19 01:00:00 1.8 0 Calma 8 Oeste 0 -- -- 95
2021-01-19 00:00:00 2.4 4 Oeste 8 Oeste 0 -- -- 94
2021-01-18 23:00:00 3.6 0 Calma 6 Noroeste 0 -- -- 92
2021-01-18 22:00:00 4.7 0 Calma 3 Sudoeste 0 -- -- 90
2021-01-18 21:00:00 5.6 4 Sur 6 Sudoeste 0 -- -- 88
2021-01-18 20:00:00 6.7 2 Sur 9 Nordeste 0 -- -- 83
2021-01-18 19:00:00 8 7 Este 10 Este 0 -- -- 78
2021-01-18 18:00:00 9.4 4 Este 7 Nordeste 0 -- -- 73
2021-01-18 17:00:00 11 3 Nordeste 11 Este 0 -- -- 70
2021-01-18 16:00:00 11 4 Este 13 Nordeste 0 -- -- 71
2021-01-18 15:00:00 10.9 7 Nordeste 14 Norte 0 -- -- 73
2021-01-18 14:00:00 9.2 3 Oeste 12 Nordeste 0 -- -- 80
2021-01-18 13:00:00 6.5 3 Norte 6 Noroeste 0 -- -- 94
2021-01-18 12:00:00 5.4 2 Oeste 7 Noroeste 0 -- -- 98
2021-01-18 11:00:00 4.6 0 Calma 10 Noroeste 0 -- -- 98
2021-01-18 10:00:00 3.6 5 Noroeste 8 Noroeste 0 -- -- 97
2021-01-18 09:00:00 2.2 0 Calma 6 Norte 0 -- -- 95
2021-01-18 08:00:00 1.9 2 Norte 5 Oeste 0 -- -- 95
2021-01-18 07:00:00 2.6 0 Calma 4 Oeste 0 -- -- 93
2021-01-18 06:00:00 3.8 0 Calma 5 Oeste 0 -- -- 92
2021-01-18 05:00:00 5.1 0 Calma 5 Sur 0 -- -- 90
2021-01-18 04:00:00 6.7 7 Sudoeste 14 Sudoeste 0 -- -- 87
2021-01-18 03:00:00 7.3 12 Sudoeste 17 Sudoeste 0 -- -- 86
2021-01-18 02:00:00 7.4 9 Sudoeste 15 Sudoeste 0 -- -- 86
2021-01-18 01:00:00 8.3 9 Sudoeste 19 Sudoeste 0 -- -- 84
2021-01-18 00:00:00 9.1 11 Sudoeste 20 Sudoeste 0 -- -- 81
2021-01-17 23:00:00 9.7 10 Sur 18 Oeste 0 -- -- 78
2021-01-17 22:00:00 11.2 10 Oeste 22 Noroeste 0 -- -- 72
2021-01-17 21:00:00 11.7 9 Oeste 19 Oeste 0 -- -- 70
2021-01-17 20:00:00 12.6 17 Oeste 34 Oeste 0 -- -- 68
2021-01-17 19:00:00 13.3 22 Oeste 39 Noroeste 0 -- -- 66
2021-01-17 18:00:00 14 18 Oeste 38 Oeste 0 -- -- 63
2021-01-17 17:00:00 15.4 22 Noroeste 45 Noroeste 0 -- -- 58
2021-01-17 16:00:00 16.3 22 Oeste 46 Oeste 0 -- -- 55
2021-01-17 15:00:00 16.2 22 Oeste 47 Oeste 0 -- -- 54
2021-01-17 14:00:00 14.6 17 Oeste 28 Oeste 0 -- -- 53
2021-01-17 13:00:00 13.6 5 Sudoeste 14 Sur 0 -- -- 53
2021-01-17 12:00:00 10.8 5 Sudoeste 12 Sudoeste 0 -- -- 55
2021-01-17 11:00:00 9 3 Sudeste 6 Sudeste 0 -- -- 59
2021-01-17 10:00:00 5.5 3 Sudeste 10 Sudoeste 0 -- -- 66
2021-01-17 09:00:00 1 2 Oeste 13 Sudoeste 0 -- -- 83
2021-01-17 08:00:00 2.9 6 Sur 10 Sudoeste 0 -- -- 73
2021-01-17 07:00:00 3 2 Sur 15 Sudoeste 0 -- -- 73
2021-01-17 06:00:00 3.3 5 Sur 8 Sudoeste 0 -- -- 72
2021-01-17 05:00:00 2.6 0 Calma 2 Oeste 0 -- -- 76
2021-01-17 04:00:00 3.7 0 Calma 3 Nordeste 0 -- -- 72
2021-01-17 03:00:00 4.8 0 Calma 10 Sudoeste 0 -- -- 67
2021-01-17 02:00:00 4.8 0 Calma 6 Oeste 0 -- -- 71
2021-01-17 01:00:00 4.6 3 Sudoeste 5 Sudoeste 0 -- -- 73
2021-01-17 00:00:00 4.6 0 Calma 5 Norte 0 -- -- 78
2021-01-16 23:00:00 4.6 3 Norte 6 Noroeste 0 -- -- 82
2021-01-16 22:00:00 5 2 Noroeste 4 Oeste 0 -- -- 80
2021-01-16 21:00:00 6.1 3 Noroeste 4 Noroeste 0 -- -- 75
2021-01-16 20:00:00 7.8 0 Calma 7 Sur 0 -- -- 68
2021-01-16 19:00:00 8.8 2 Sudeste 7 Sudeste 0 -- -- 65
2021-01-16 18:00:00 10.4 4 Sudeste 6 Sudeste 0 -- -- 59
2021-01-16 17:00:00 11.9 0 Calma 5 Nordeste 0 -- -- 54
2021-01-16 16:00:00 11 3 Noroeste 12 Oeste 0 -- -- 57
2021-01-16 15:00:00 11.1 6 Oeste 17 Oeste 0 -- -- 56
2021-01-16 14:00:00 10.4 6 Oeste 19 Oeste 0 -- -- 58
2021-01-16 13:00:00 10.1 12 Oeste 18 Oeste 0 -- -- 61
2021-01-16 12:00:00 8.6 9 Sudoeste 15 Sudoeste 0 -- -- 69
2021-01-16 11:00:00 6.5 5 Sur 10 Sudeste 0 -- -- 72
2021-01-16 10:00:00 5.1 4 Sur 10 Sur 0 -- -- 76
2021-01-16 09:00:00 3.9 6 Sudoeste 14 Sudoeste 0 -- -- 79
2021-01-16 08:00:00 4 5 Sur 19 Sudoeste 0 -- -- 79
2021-01-16 07:00:00 3.9 5 Sudoeste 13 Sudoeste 0 -- -- 80
2021-01-16 06:00:00 4 7 Sudoeste 11 Sur 0 -- -- 80
2021-01-16 05:00:00 4.4 7 Sur 10 Sur 0 -- -- 78
2021-01-16 04:00:00 5.1 6 Sudeste 16 Sudeste 0 -- -- 75
2021-01-16 03:00:00 5.6 3 Sudoeste 16 Oeste 0 -- -- 74
2021-01-16 02:00:00 5.9 4 Noroeste 21 Oeste 0 -- -- 72
2021-01-16 01:00:00 5.7 8 Oeste 19 Oeste 0 -- -- 71
2021-01-16 00:00:00 6.5 12 Oeste 20 Oeste 0 -- -- 69
2021-01-15 23:00:00 6.9 7 Oeste 18 Oeste 0 -- -- 70
2021-01-15 22:00:00 7.2 4 Sur 15 Sudoeste 0 -- -- 71
2021-01-15 21:00:00 8 5 Sur 36 Oeste 0 -- -- 66
2021-01-15 20:00:00 8.6 27 Noroeste 49 Oeste 0 -- -- 66
2021-01-15 19:00:00 9.2 28 Oeste 43 Oeste 0 -- -- 65
2021-01-15 18:00:00 9.9 26 Oeste 40 Oeste 0 -- -- 63
2021-01-15 17:00:00 11.6 26 Oeste 51 Oeste 0 -- -- 58
2021-01-15 16:00:00 12.1 36 Oeste 58 Oeste 0 -- -- 57
2021-01-15 15:00:00 12.2 26 Oeste 49 Oeste 0 -- -- 56
2021-01-15 14:00:00 11.7 24 Oeste 42 Oeste 0 -- -- 60
2021-01-15 13:00:00 10.2 6 Sudoeste 13 Sudoeste 0 -- -- 69
2021-01-15 12:00:00 7.5 3 Sudoeste 13 Sudoeste 0 -- -- 80
2021-01-15 11:00:00 3.4 0 Calma 5 Sur 0 -- -- 96
2021-01-15 10:00:00 1.7 2 Sudeste 8 Sur 0 -- -- 100
2021-01-15 09:00:00 -0.3 5 Sudeste 8 Sur 0 -- -- 100
2021-01-15 08:00:00 -2.6 2 Este 4 Sur 0 -- -- 100
2021-01-15 07:00:00 -2.5 5 Sudoeste 10 Sur 0 -- -- 99
2021-01-15 06:00:00 -2.5 0 Calma 6 Sur 0 -- -- 99
2021-01-15 05:00:00 -2.6 0 Calma 4 Nordeste 0 -- -- 99
2021-01-15 04:00:00 -2.4 0 Calma 5 Nordeste 0 -- -- 99
2021-01-15 03:00:00 -1.9 2 Noroeste 3 Norte 0 -- -- 99
2021-01-15 02:00:00 -1.3 0 Calma 3 Oeste 0 -- -- 98
2021-01-15 01:00:00 -0.5 0 Calma 2 Sur 0 -- -- 98
2021-01-15 00:00:00 -0.3 0 Calma 6 Este 0 -- -- 98
2021-01-14 23:00:00 0.4 3 Este 7 Este 0 -- -- 97
2021-01-14 22:00:00 1.4 0 Calma 9 Nordeste 0 -- -- 97
2021-01-14 21:00:00 1.7 5 Nordeste 9 Norte 0 -- -- 97
2021-01-14 20:00:00 2.1 7 Nordeste 10 Nordeste 0 -- -- 95
2021-01-14 19:00:00 2.7 6 Norte 11 Norte 0 -- -- 93
2021-01-14 18:00:00 3.3 7 Norte 11 Norte 0 -- -- 90
2021-01-14 17:00:00 5.2 5 Norte 10 Noroeste 0 -- -- 82
2021-01-14 16:00:00 8.9 5 Noroeste 8 Oeste 0 -- -- 70
2021-01-14 15:00:00 8.3 0 Calma 7 Nordeste 0 -- -- 72
2021-01-14 14:00:00 6.2 4 Noroeste 9 Noroeste 0 -- -- 77
2021-01-14 13:00:00 4.8 6 Noroeste 9 Noroeste 0 -- -- 81
2021-01-14 12:00:00 3.9 0 Calma 4 Norte 0 -- -- 88
2021-01-14 11:00:00 3 0 Calma -- -- 0 -- -- 94
2021-01-14 10:00:00 1.6 0 Calma 0 Calma 0 -- -- 100
2021-01-14 09:00:00 -0.2 0 Calma -- -- 0 -- -- 99
2021-01-14 08:00:00 -0.8 0 Calma 3 Norte 0 -- -- 99
2021-01-14 07:00:00 -1.4 0 Calma 0 Calma 0 -- -- 99
2021-01-14 06:00:00 -1.9 0 Calma 3 Oeste 0 -- -- 98
2021-01-14 05:00:00 -2.2 2 Oeste 3 Oeste 0 -- -- 98
2021-01-14 04:00:00 -2.7 0 Calma 3 Nordeste 0 -- -- 98
2021-01-14 03:00:00 -2.9 0 Calma 2 Oeste 0 -- -- 97
2021-01-14 02:00:00 -1.9 0 Calma 3 Sur 0 -- -- 96
2021-01-14 01:00:00 -0.9 0 Calma 4 Sudoeste 0 -- -- 96
2021-01-14 00:00:00 -0.1 0 Calma 3 Sudoeste 0 -- -- 95
2021-01-13 23:00:00 0.3 0 Calma 2 Nordeste 0 -- -- 94
2021-01-13 22:00:00 0.8 0 Calma 4 Este 0 -- -- 93
2021-01-13 21:00:00 1.7 2 Nordeste 6 Este 0 -- -- 91
2021-01-13 20:00:00 2.4 2 Este 11 Este 0 -- -- 88
2021-01-13 19:00:00 3.5 8 Este 14 Este 0 -- -- 85
2021-01-13 18:00:00 4.5 11 Este 15 Este 0 -- -- 82
2021-01-13 17:00:00 6.4 6 Este 10 Este 0 -- -- 75
2021-01-13 16:00:00 7.8 5 Este 7 Este 0 -- -- 73
2021-01-13 15:00:00 6.9 2 Este 8 Sudeste 0 -- -- 74
2021-01-13 14:00:00 5.9 0 Calma 7 Sur 0 -- -- 77
2021-01-13 13:00:00 5 2 Sudoeste 4 Sudoeste 0 -- -- 76
2021-01-13 12:00:00 2.2 0 Calma 4 Sur 0 -- -- 84
2021-01-13 11:00:00 -0.2 2 Sudoeste 4 Sudoeste 0 -- -- 90
2021-01-13 10:00:00 -1.5 0 Calma 4 Nordeste 0 -- -- 96
2021-01-13 09:00:00 -4.1 0 Calma -- -- 0 -- -- 97
2021-01-13 08:00:00 -4 0 Calma 3 Nordeste 0 -- -- 97
2021-01-13 07:00:00 -4.1 2 Norte 4 Norte 0 -- -- 96
2021-01-13 06:00:00 -3.8 0 Calma 2 Norte 0 -- -- 96
2021-01-13 05:00:00 -3.7 0 Calma 4 Sudoeste 0 -- -- 95
2021-01-13 04:00:00 -3 0 Calma 3 Sudoeste 0 -- -- 95
2021-01-13 03:00:00 -2.4 0 Calma 4 Sur 0 -- -- 94
2021-01-13 02:00:00 -1.3 0 Calma 5 Nordeste 0 -- -- 91
2021-01-13 01:00:00 0.2 4 Nordeste 5 Nordeste 0 -- -- 91
2021-01-13 00:00:00 -0.1 0 Calma 12 Sudoeste 0 -- -- 90
2021-01-12 23:00:00 -0.4 3 Sur 6 Oeste 0 -- -- 93
2021-01-12 22:00:00 -0.6 2 Nordeste 3 Nordeste 0 -- -- 91
2021-01-12 21:00:00 0.2 3 Nordeste 8 Oeste 0 -- -- 89
2021-01-12 20:00:00 1 4 Noroeste 8 Noroeste 0 -- -- 86
2021-01-12 19:00:00 2.3 3 Noroeste 14 Oeste 0 -- -- 81
2021-01-12 18:00:00 4.1 6 Sudoeste 16 Oeste 0 -- -- 75
2021-01-12 17:00:00 6.2 4 Oeste 15 Sudoeste 0 -- -- 68
2021-01-12 16:00:00 5.8 9 Sudoeste 14 Sudoeste 0 -- -- 68
2021-01-12 15:00:00 5.3 4 Oeste 8 Sudoeste 0 -- -- 70
2021-01-12 14:00:00 3.3 3 Oeste 5 Oeste 0 -- -- 72
2021-01-12 13:00:00 2.3 2 Oeste 6 Oeste 0 -- -- 72
2021-01-12 12:00:00 0.2 0 Calma 4 Noroeste 0 -- -- 80
2021-01-12 11:00:00 -1.3 0 Calma 2 Nordeste 0 -- -- 85
2021-01-12 10:00:00 -4.6 0 Calma 3 Sudoeste 0 -- -- 91
2021-01-12 09:00:00 -5.7 0 Calma 2 Sudoeste 0 -- -- 93
2021-01-12 08:00:00 -5 0 Calma 3 Norte 0 -- -- 91
2021-01-12 07:00:00 -3.9 0 Calma 4 Norte 0 -- -- 90
2021-01-12 06:00:00 -3.7 0 Calma 7 Norte 0 -- -- 89
2021-01-12 05:00:00 -3.4 2 Nordeste 4 Oeste 0 -- -- 88
2021-01-12 04:00:00 -3.1 0 Calma 8 Noroeste 0 -- -- 86
2021-01-12 03:00:00 -2.8 0 Calma 4 Oeste 0 -- -- 86
2021-01-12 02:00:00 -2.4 3 Oeste 7 Sudoeste 0 -- -- 85
2021-01-12 01:00:00 -2.1 4 Sudoeste 8 Sudoeste 0 -- -- 85
2021-01-12 00:00:00 -1.6 6 Sudoeste 12 Sudoeste 0 -- -- 83
2021-01-11 23:00:00 -1.1 3 Sur 13 Sudoeste 0 -- -- 84
2021-01-11 22:00:00 -0.9 7 Sudoeste 12 Sudoeste 0 -- -- 84
2021-01-11 21:00:00 -1.3 0 Calma 5 Sur 0 -- -- 87
2021-01-11 20:00:00 -0.3 3 Sur 4 Sur 0 -- -- 85
2021-01-11 19:00:00 -0.2 0 Calma 5 Sudoeste 0 -- -- 82
2021-01-11 18:00:00 0.6 3 Sudoeste 8 Sur 0 -- -- 77
2021-01-11 17:00:00 2.7 5 Oeste 10 Oeste 0 -- -- 70
2021-01-11 16:00:00 2.9 6 Sudoeste 13 Oeste 0 -- -- 67
2021-01-11 15:00:00 2.9 6 Oeste 13 Oeste 0 -- -- 68
2021-01-11 14:00:00 2.5 4 Oeste 9 Noroeste 0 -- -- 69
2021-01-11 13:00:00 2.4 3 Oeste 8 Noroeste 0 -- -- 70
2021-01-11 12:00:00 1.4 0 Calma 5 Noroeste 0 -- -- 76
2021-01-11 11:00:00 0.4 0 Calma 4 Sudoeste 0 -- -- 78
2021-01-11 10:00:00 -0.3 0 Calma 5 Sudoeste 0 -- -- 82
2021-01-11 09:00:00 -2.1 3 Sudoeste 5 Sur 0 -- -- 85
2021-01-11 08:00:00 -2.2 4 Sur 9 Sudoeste 0 -- -- 85
2021-01-11 07:00:00 -1.6 5 Sudoeste 13 Sudoeste 0 -- -- 84
2021-01-11 06:00:00 -1.3 4 Sudoeste 10 Sudoeste 0 -- -- 85
2021-01-11 05:00:00 -0.9 3 Sur 11 Sudoeste 0 -- -- 86
2021-01-11 04:00:00 -0.2 5 Sudoeste 12 Sudoeste 0 -- -- 87
2021-01-11 03:00:00 0.4 5 Sudoeste 12 Sudoeste 0 -- -- 86
2021-01-11 02:00:00 1 8 Sudoeste 15 Sudoeste 0 -- -- 86
2021-01-11 01:00:00 1.3 5 Sudoeste 12 Sudoeste 0 -- -- 86
2021-01-11 00:00:00 1.4 6 Sudoeste 12 Sudoeste 0 -- -- 88
2021-01-10 23:00:00 1.6 3 Sudoeste 10 Sudoeste 0 -- -- 90
2021-01-10 22:00:00 1.8 5 Sudoeste 12 Sudoeste 0 -- -- 89
2021-01-10 21:00:00 1.8 5 Sur 10 Sudoeste 0 -- -- 91
2021-01-10 20:00:00 1.8 6 Sur 15 Sur 0 -- -- 92
2021-01-10 19:00:00 1.7 3 Sur 11 Sur 0.2 -- -- 95
2021-01-10 18:00:00 1.5 6 Sur 13 Sur 0 -- -- 95
2021-01-10 17:00:00 1.8 5 Sur 9 Sudeste 0.2 -- -- 96
2021-01-10 16:00:00 1.8 5 Sur 10 Sudoeste 0.2 -- -- 96
2021-01-10 15:00:00 1.6 4 Sur 7 Sur 0.4 -- -- 97
2021-01-10 14:00:00 1.2 4 Sur 7 Sur 0.4 -- -- 97
2021-01-10 13:00:00 1.1 2 Sur 8 Sudeste 0.6 -- -- 97
2021-01-10 12:00:00 0.9 4 Sudeste 9 Sur 0.4 -- -- 97
2021-01-10 11:00:00 0.8 4 Sur 6 Sur 0.6 -- -- 98
2021-01-10 10:00:00 0.8 4 Sur 9 Sur 0.4 -- -- 98
2021-01-10 09:00:00 0.5 4 Sur 6 Sur 1.6 -- -- 98
2021-01-10 08:00:00 0.8 0 Calma 8 Sudoeste 1.2 -- -- 98
2021-01-10 07:00:00 0.9 4 Sur 5 Sur 0.4 -- -- 98
2021-01-10 06:00:00 1.1 0 Calma 5 Oeste 0 -- -- 98
2021-01-10 05:00:00 1 4 Oeste 8 Oeste 0 -- -- 99
2021-01-10 04:00:00 0.6 2 Noroeste 9 Noroeste 0.4 -- -- 98
2021-01-10 03:00:00 0.7 9 Oeste 19 Oeste 0 -- -- 98
2021-01-10 02:00:00 0.8 12 Noroeste 22 Oeste 0.2 -- -- 99
2021-01-10 01:00:00 0.6 12 Noroeste 24 Noroeste 2 -- -- 98
2021-01-10 00:00:00 0.8 17 Noroeste 24 Noroeste 3.4 -- -- 99
2021-01-09 23:00:00 0.2 0 Calma -- -- 3.2 -- -- 99
2021-01-09 22:00:00 0 0 Calma -- -- 0.6 -- -- 99
2021-01-09 21:00:00 0 0 Calma 3 Oeste 2.8 -- -- 99
2021-01-09 20:00:00 0.1 0 Calma 13 Noroeste 2.6 -- -- 99
2021-01-09 19:00:00 0.3 9 Noroeste 17 Noroeste 3 -- -- 99
2021-01-09 18:00:00 0.3 12 Noroeste 16 Noroeste 1 -- -- 99
2021-01-09 17:00:00 0.3 2 Norte 4 Sudoeste 2 -- -- 99
2021-01-09 16:00:00 0.7 2 Oeste 12 Noroeste 0.6 -- -- 99
2021-01-09 15:00:00 0.8 7 Oeste 16 Noroeste 0 -- -- 99
2021-01-09 14:00:00 0.5 8 Noroeste 17 Noroeste 0.4 -- -- 99
2021-01-09 13:00:00 0.4 4 Noroeste 7 Noroeste 1.8 -- -- 98
2021-01-09 12:00:00 0.3 4 Sudoeste 9 Noroeste 0.4 -- -- 98
2021-01-09 11:00:00 0.2 0 Calma 0 Calma 1 -- -- 99
2021-01-09 10:00:00 0.1 0 Calma -- -- 2 -- -- 99
2021-01-09 09:00:00 -0.1 0 Calma 5 Oeste 1.6 -- -- 98
2021-01-09 08:00:00 -0.2 4 Noroeste 9 Noroeste 1.6 -- -- 98
2021-01-09 07:00:00 -0.3 5 Noroeste 11 Noroeste 2.8 -- -- 98
2021-01-09 06:00:00 -0.2 9 Noroeste 14 Noroeste 2.4 -- -- 98
2021-01-09 05:00:00 -0.3 7 Noroeste 14 Oeste 1 -- -- 97
2021-01-09 04:00:00 -0.4 4 Noroeste 9 Norte 0.4 -- -- 97
2021-01-09 03:00:00 -0.5 4 Noroeste 9 Noroeste 0.4 -- -- 97
2021-01-09 02:00:00 -0.4 6 Noroeste 9 Noroeste 0.2 -- -- 97
2021-01-09 01:00:00 -0.3 3 Noroeste 5 Oeste 0.6 -- -- 95
2021-01-09 00:00:00 -0.1 0 Calma 5 Noroeste 0.2 -- -- 93
2021-01-08 23:00:00 0.5 0 Calma 8 Noroeste 0 -- -- 85
2021-01-08 22:00:00 0.6 3 Oeste 6 Noroeste 0 -- -- 84
2021-01-08 21:00:00 1 3 Oeste 5 Nordeste 0 -- -- 82
2021-01-08 20:00:00 1 3 Norte 8 Norte 0 -- -- 81
2021-01-08 19:00:00 1.3 0 Calma 3 Noroeste 0 -- -- 79
2021-01-08 18:00:00 1.5 0 Calma 6 Noroeste 0 -- -- 77
2021-01-08 17:00:00 1.9 0 Calma 6 Noroeste 0 -- -- 75
2021-01-08 16:00:00 2.1 2 Noroeste 11 Noroeste 0 -- -- 74
2021-01-08 15:00:00 2.1 4 Noroeste 13 Noroeste 0 -- -- 75
2021-01-08 14:00:00 2.1 4 Nordeste 11 Noroeste 0 -- -- 74
2021-01-08 13:00:00 1.8 2 Sudoeste 9 Oeste 0 -- -- 74
2021-01-08 12:00:00 -0.7 2 Norte 5 Noroeste 0 -- -- 88
2021-01-08 11:00:00 -2.1 0 Calma 4 Oeste 0 -- -- 91
2021-01-08 10:00:00 -2.3 0 Calma 2 Norte 0 -- -- 91
2021-01-08 09:00:00 -2.9 0 Calma 3 Oeste 0 -- -- 92
2021-01-08 08:00:00 -2.6 2 Noroeste 9 Sudoeste 0 -- -- 91
2021-01-08 07:00:00 -1.6 4 Sudoeste 9 Sudoeste 0 -- -- 90
2021-01-08 06:00:00 -1.4 2 Sudoeste 5 Sudoeste 0 -- -- 93
2021-01-08 05:00:00 -1.1 0 Calma 6 Noroeste 0 -- -- 92
2021-01-08 04:00:00 -0.6 2 Norte 6 Norte 0 -- -- 89
2021-01-08 03:00:00 0.2 3 Norte 5 Norte 0 -- -- 85
2021-01-08 02:00:00 0.8 0 Calma 4 Nordeste 0 -- -- 84
2021-01-08 01:00:00 1.2 2 Nordeste 8 Sudoeste 0 -- -- 84
2021-01-08 00:00:00 1.4 4 Sur 11 Sudoeste 0 -- -- 84
2021-01-07 23:00:00 1.5 0 Calma 13 Sudoeste 0 -- -- 81
2021-01-07 22:00:00 1.5 6 Sur 15 Sudoeste 0 -- -- 81
2021-01-07 21:00:00 1.3 7 Sudoeste 13 Sudoeste 0 -- -- 82
2021-01-07 20:00:00 1.2 5 Sur 13 Sur 0 -- -- 84
2021-01-07 19:00:00 1.3 7 Sur 12 Sudoeste 0 -- -- 85
2021-01-07 18:00:00 1.4 6 Sudoeste 13 Sudoeste 0 -- -- 85
2021-01-07 17:00:00 1.2 4 Sudoeste 7 Sudoeste 0 -- -- 88
2021-01-07 16:00:00 0.9 2 Sudeste 6 Sur 0 -- -- 89
2021-01-07 15:00:00 0.8 2 Sudeste 6 Sudoeste 0 -- -- 89
2021-01-07 14:00:00 0.3 3 Sudoeste 5 Oeste 0 -- -- 91
2021-01-07 13:00:00 -0.3 2 Nordeste 4 Nordeste 0 -- -- 97
2021-01-07 12:00:00 -1.4 2 Norte 3 Noroeste 0 -- -- 97
2021-01-07 11:00:00 -1.9 0 Calma 3 Sur 0 -- -- 98
2021-01-07 10:00:00 -2.8 0 Calma 4 Oeste 0 -- -- 98
2021-01-07 09:00:00 -3.3 0 Calma 5 Oeste 0 -- -- 98
2021-01-07 08:00:00 -3.5 0 Calma 6 Norte 0 -- -- 98
2021-01-07 07:00:00 -3.7 3 Noroeste 10 Noroeste 0 -- -- 97
2021-01-07 06:00:00 -3.9 6 Noroeste 10 Noroeste 0 -- -- 96
2021-01-07 05:00:00 -3.6 3 Noroeste 4 Norte 0 -- -- 96
2021-01-07 04:00:00 -3.7 2 Noroeste 4 Noroeste 0 -- -- 95
2021-01-07 03:00:00 -3.6 0 Calma 5 Oeste 0 -- -- 95
2021-01-07 02:00:00 -3.5 4 Noroeste 6 Noroeste 0 -- -- 95
2021-01-07 01:00:00 -3.3 0 Calma 0 Calma 0 -- -- 94
2021-01-07 00:00:00 -2.6 0 Calma 2 Noroeste 0 -- -- 93
2021-01-06 23:00:00 -2 0 Calma 3 Sur 0 -- -- 94
2021-01-06 22:00:00 -1.9 2 Sur 4 Sur 0 -- -- 94
2021-01-06 21:00:00 -1.9 0 Calma 2 Sudeste 0 -- -- 91
2021-01-06 20:00:00 -1.1 0 Calma 12 Nordeste 0 -- -- 90
2021-01-06 19:00:00 -0.4 8 Nordeste 13 Nordeste 0 -- -- 88
2021-01-06 18:00:00 0.3 0 Calma 3 Oeste 0 -- -- 88
2021-01-06 17:00:00 1.5 0 Calma 6 Sur 0 -- -- 85
2021-01-06 16:00:00 0.6 4 Sudoeste 7 Sur 0 -- -- 88
2021-01-06 15:00:00 0.6 4 Oeste 7 Oeste 0 -- -- 90
2021-01-06 14:00:00 -0.8 2 Noroeste 8 Oeste 0 -- -- 97
2021-01-06 13:00:00 -1.6 0 Calma 6 Oeste 0 -- -- 97
2021-01-06 12:00:00 -2 0 Calma 5 Oeste 0 -- -- 97
2021-01-06 11:00:00 -2.9 0 Calma 5 Noroeste 0 -- -- 97
2021-01-06 10:00:00 -4.4 0 Calma 3 Noroeste 0 -- -- 96
2021-01-06 09:00:00 -5.1 0 Calma 3 Sudoeste 0 -- -- 95
2021-01-06 08:00:00 -4.8 0 Calma 4 Noroeste 0 -- -- 94
2021-01-06 07:00:00 -4.3 0 Calma 4 Noroeste 0 -- -- 94
2021-01-06 06:00:00 -4.3 0 Calma 2 Noroeste 0 -- -- 93
2021-01-06 05:00:00 -3.6 3 Sur 5 Sur 0 -- -- 94
2021-01-06 04:00:00 -3.2 2 Noroeste 3 Noroeste 0 -- -- 93
2021-01-06 03:00:00 -2.8 0 Calma 4 Sur 0 -- -- 91
2021-01-06 02:00:00 -2 0 Calma 2 Sudoeste 0 -- -- 91
2021-01-06 01:00:00 -1.3 0 Calma 3 Sur 0 -- -- 90
2021-01-06 00:00:00 -0.9 0 Calma 5 Sur 0 -- -- 88
2021-01-05 23:00:00 -0.3 2 Este 7 Este 0 -- -- 87
2021-01-05 22:00:00 0.3 3 Este 6 Este 0 -- -- 84
2021-01-05 21:00:00 1.3 4 Este 11 Este 0 -- -- 82
2021-01-05 20:00:00 2.3 12 Este 20 Este 0 -- -- 81
2021-01-05 19:00:00 4.2 5 Nordeste 8 Sudeste 0 -- -- 76
2021-01-05 18:00:00 4.5 3 Este 15 Este 0 -- -- 75
2021-01-05 17:00:00 4.7 7 Este 12 Nordeste 0 -- -- 74
2021-01-05 16:00:00 6.2 7 Nordeste 10 Este 0 -- -- 69
2021-01-05 15:00:00 6.9 5 Oeste 10 Norte 0 -- -- 63
2021-01-05 14:00:00 6 7 Noroeste 16 Noroeste 0 -- -- 68
2021-01-05 13:00:00 5.1 6 Oeste 12 Oeste 0 -- -- 72
2021-01-05 12:00:00 3.6 2 Noroeste 6 Noroeste 0 -- -- 77
2021-01-05 11:00:00 2.4 0 Calma 3 Noroeste 0 -- -- 78
2021-01-05 10:00:00 0.1 0 Calma 4 Sur 0 -- -- 87
2021-01-05 09:00:00 -1.6 3 Sur 5 Sur 0 -- -- 90
2021-01-05 08:00:00 -1.2 3 Noroeste 8 Sudoeste 0 -- -- 88
2021-01-05 07:00:00 -1 7 Sudoeste 10 Sudoeste 0 -- -- 89
2021-01-05 06:00:00 -0.8 3 Oeste 5 Oeste 0 -- -- 88
2021-01-05 05:00:00 -0.4 0 Calma 7 Nordeste 0 -- -- 86
2021-01-05 04:00:00 -0.4 5 Nordeste 8 Norte 0 -- -- 86
2021-01-05 03:00:00 0.3 2 Noroeste 11 Sudoeste 0 -- -- 83
2021-01-05 02:00:00 1.3 7 Oeste 14 Oeste 0 -- -- 81
2021-01-05 01:00:00 2.1 3 Sur 6 Este 0 -- -- 79
2021-01-05 00:00:00 2.5 0 Calma 13 Noroeste 0 -- -- 76
2021-01-04 23:00:00 2.9 6 Oeste 15 Oeste 0 -- -- 73
2021-01-04 22:00:00 3.7 10 Noroeste 21 Noroeste 0 -- -- 70
2021-01-04 21:00:00 4.1 12 Noroeste 20 Noroeste 0 -- -- 66
2021-01-04 20:00:00 4.1 8 Noroeste 12 Noroeste 0 -- -- 65
2021-01-04 19:00:00 4.3 7 Noroeste 12 Oeste 0 -- -- 67
2021-01-04 18:00:00 5.4 7 Oeste 16 Noroeste 0 -- -- 63
2021-01-04 17:00:00 6.8 15 Noroeste 30 Noroeste 0 -- -- 58
2021-01-04 16:00:00 7.5 6 Noroeste 17 Noroeste 0 -- -- 58
2021-01-04 15:00:00 8.5 10 Noroeste 17 Oeste 0 -- -- 56
2021-01-04 14:00:00 8.4 13 Noroeste 28 Oeste 0 -- -- 53
2021-01-04 13:00:00 8 18 Oeste 26 Oeste 0 -- -- 55
2021-01-04 12:00:00 6.5 2 Sudeste 8 Sur 0 -- -- 68
2021-01-04 11:00:00 4.8 6 Sur 10 Oeste 0 -- -- 75
2021-01-04 10:00:00 3 2 Sudoeste 6 Sudoeste 0 -- -- 83
2021-01-04 09:00:00 0.3 0 Calma 4 Sur 0 -- -- 90
2021-01-04 08:00:00 0.5 0 Calma 5 Sudeste 0 -- -- 87
2021-01-04 07:00:00 0.5 0 Calma 2 Nordeste 0 -- -- 89
2021-01-04 06:00:00 0.6 0 Calma 12 Sur 0 -- -- 87
2021-01-04 05:00:00 1.5 7 Sudeste 11 Sudeste 0 -- -- 87
2021-01-04 04:00:00 1.8 4 Sudoeste 11 Noroeste 0 -- -- 84
2021-01-04 03:00:00 2.4 7 Sudoeste 13 Sudoeste 0 -- -- 81
2021-01-04 02:00:00 2.4 9 Sudoeste 17 Sudoeste 0 -- -- 77
2021-01-04 01:00:00 3.4 12 Sudoeste 21 Oeste 0 -- -- 72
2021-01-04 00:00:00 3.7 8 Oeste 19 Oeste 0 -- -- 70
2021-01-03 23:00:00 4.4 4 Noroeste 27 Oeste 0 -- -- 67
2021-01-03 22:00:00 5.4 14 Oeste 28 Sudoeste 0 -- -- 62
2021-01-03 21:00:00 4.6 13 Sudoeste 29 Sudoeste 0 -- -- 67
2021-01-03 20:00:00 5.5 6 Sudoeste 21 Sudoeste 0 -- -- 64
2021-01-03 19:00:00 7 14 Oeste 38 Oeste 0 -- -- 59
2021-01-03 18:00:00 7.9 26 Oeste 45 Oeste 0 -- -- 56
2021-01-03 17:00:00 9.1 20 Oeste 54 Oeste 0 -- -- 52
2021-01-03 16:00:00 9.6 35 Oeste 52 Oeste 0 -- -- 50
2021-01-03 15:00:00 9.6 32 Oeste 43 Oeste 0 -- -- 50
2021-01-03 14:00:00 9.2 26 Oeste 42 Oeste 0 -- -- 50
2021-01-03 13:00:00 8.3 17 Oeste 30 Oeste 0 -- -- 51
2021-01-03 12:00:00 6.8 8 Sudoeste 20 Sudoeste 0 -- -- 59
2021-01-03 11:00:00 4.3 11 Sudoeste 16 Sudoeste 0 -- -- 64
2021-01-03 10:00:00 2.1 10 Sudoeste 20 Sudoeste 0 -- -- 71
2021-01-03 09:00:00 0.6 12 Sudoeste 21 Sudoeste 0 -- -- 74
2021-01-03 08:00:00 0.4 9 Sudoeste 17 Sudoeste 0 -- -- 72
2021-01-03 07:00:00 0.4 12 Sudoeste 18 Sudoeste 0 -- -- 67
2021-01-03 06:00:00 0.5 7 Sudoeste 20 Oeste 0 -- -- 65
2021-01-03 05:00:00 1.2 9 Oeste 25 Oeste 0 -- -- 60
2021-01-03 04:00:00 1.7 8 Oeste 17 Sudoeste 0 -- -- 58
2021-01-03 03:00:00 1.9 6 Sudoeste 19 Oeste 0 -- -- 59
2021-01-03 02:00:00 2.4 14 Oeste 26 Oeste 0 -- -- 56
2021-01-03 01:00:00 2.8 14 Oeste 28 Oeste 0 -- -- 54
2021-01-03 00:00:00 2.9 6 Sudoeste 21 Oeste 0 -- -- 54
2021-01-02 23:00:00 3.4 18 Oeste 35 Oeste 0 -- -- 49
2021-01-02 22:00:00 3.8 16 Oeste 31 Oeste 0 -- -- 47
2021-01-02 21:00:00 4.2 17 Oeste 32 Noroeste 0 -- -- 46
2021-01-02 20:00:00 4.7 21 Oeste 39 Noroeste 0 -- -- 45
2021-01-02 19:00:00 5.9 20 Noroeste 39 Noroeste 0 -- -- 41
2021-01-02 18:00:00 6.9 26 Oeste 39 Oeste 0 -- -- 37
2021-01-02 17:00:00 8.4 19 Oeste 36 Oeste 0 -- -- 43
2021-01-02 16:00:00 10.1 21 Oeste 34 Oeste 0 -- -- 41
2021-01-02 15:00:00 10.1 18 Noroeste 26 Oeste 0 -- -- 42
2021-01-02 14:00:00 9.4 11 Oeste 23 Oeste 0 -- -- 54